Flight Track Log - Related Links

Times and Time Zones

All times are in EDT time to prevent confusion due to time zone crossing. See the ASQ4253 flight status page for this flight to view local times or setup timezone preferences in your user account.

Time Position Orientation Groundspeed Altitude Reporting Facility
EDT Latitude Longitude Course Direction KTS MPH feet Rate Location/Type
Sun 09:10:57 PM 33.8739 -81.1017 194° South 222 255 3,200  Level Jacksonville Center
Sun 09:11:57 PM 33.8139 -81.1378 207° Southwest 233 268 5,900 2,579 Climbing Jacksonville Center
Sun 09:12:58 PM 33.7603 -81.1889 218° Southwest 238 274 8,400 2,380 Climbing Jacksonville Center
Sun 09:13:58 PM 33.7172 -81.2447 227° Southwest 253 291 10,700 2,150 Climbing Jacksonville Center
Sun 09:14:58 PM 33.6681 -81.3128 229° Southwest 266 306 12,700 1,850 Climbing Jacksonville Center
Sun 09:15:00 PM 33.6795 -81.6322 237° Southwest  Level FlightAware Approximate
Sun 09:15:58 PM 33.6106 -81.3936 230° Southwest 278 320 14,400  Level Jacksonville Center
Sun 09:16:58 PM 33.5594 -81.4819 235° Southwest 303 349 15,800 1,400 Climbing Jacksonville Center
Sun 09:17:58 PM 33.5144 -81.5747 240° Southwest 322 371 17,200 1,208 Climbing Jacksonville Center
Sun 09:19:32 PM 33.4508 -81.7208 242° Southwest 344 396 18,900 1,208 Climbing Atlanta Center
Sun 09:20:32 PM 33.4175 -81.8264 249° West 344 396 20,300 1,400 Climbing Atlanta Center
Sun 09:21:32 PM 33.3900 -81.9239 251° West 344 396 21,700 1,350 Climbing Atlanta Center
Sun 09:22:32 PM 33.3542 -82.0394 250° West 349 402 23,000 650 Climbing Atlanta Center
Sun 09:23:32 PM 33.3225 -82.1444 250° West 360 414 23,000 250 Level Atlanta Center
Sun 09:24:32 PM 33.2806 -82.2769 249° West 379 436 23,500 500 Climbing Atlanta Center
Sun 09:25:32 PM 33.2447 -82.3969 250° West 392 451 24,000 250 Climbing Atlanta Center
Sun 09:26:32 PM 33.2025 -82.5244 248° West 397 457 24,000  Level Atlanta Center
Sun 09:27:32 PM 33.1625 -82.6617 251° West 416 479 24,000  Level Atlanta Center
Sun 09:28:32 PM 33.1264 -82.7961 252° West 428 493 24,000  Level Atlanta Center
Sun 09:29:32 PM 33.0861 -82.9553 253° West 448 516 24,000  Level Atlanta Center
Sun 09:30:32 PM 33.0578 -83.0647 253° West 454 522 24,000  Level Atlanta Center
Sun 09:31:32 PM 33.0294 -83.2114 257° West 438 504 24,000  Level Atlanta Center
Sun 09:32:32 PM 32.9972 -83.3628 256° West 433 498 24,000  Level Atlanta Center
Sun 09:33:32 PM 32.9603 -83.4992 252° West 428 493 24,000  Level Atlanta Center
Sun 09:34:32 PM 32.9169 -83.6306 249° West 434 499 24,000  Level Atlanta Center
Sun 09:35:32 PM 32.8733 -83.7667 249° West 434 499 24,000  Level Atlanta Center
Sun 09:36:32 PM 32.8319 -83.8978 249° West 434 499 24,000  Level Atlanta Center
Sun 09:37:32 PM 32.7881 -84.0289 248° West 428 493 24,000  Level Atlanta Center
Sun 09:38:32 PM 32.7442 -84.1575 248° West 433 498 24,000  Level Atlanta Center
Sun 09:39:32 PM 32.7003 -84.2881 248° West 433 498 24,000  Level Atlanta Center
Sun 09:40:32 PM 32.6581 -84.4189 249° West 433 498 24,000  Level Atlanta Center
Sun 09:41:32 PM 32.6139 -84.5517 248° West 433 498 24,000  Level Atlanta Center
Sun 09:42:32 PM 32.5672 -84.6822 247° West 427 491 24,000  Level Atlanta Center
Sun 09:43:32 PM 32.5228 -84.8125 248° West 432 497 24,000  Level Atlanta Center
Sun 09:44:32 PM 32.4822 -84.9228 246° West 426 490 24,000  Level Atlanta Center
Sun 09:45:32 PM 32.4481 -85.0556 253° West 426 490 24,000  Level Atlanta Center
Sun 09:46:32 PM 32.4008 -85.1853 247° West 431 496 24,000  Level Atlanta Center
Sun 09:47:32 PM 32.3517 -85.3150 246° West 431 496 24,000  Level Atlanta Center
Sun 09:48:32 PM 32.3064 -85.4444 248° West 431 496 24,000  Level Atlanta Center
Sun 09:49:32 PM 32.2631 -85.5764 249° West 431 496 24,000  Level Atlanta Center
Sun 09:50:32 PM 32.2156 -85.7033 246° West 431 496 24,000  Level Atlanta Center
Sun 09:51:32 PM 32.1675 -85.8497 249° West 437 503 24,000  Level Atlanta Center
Sun 09:52:32 PM 32.1217 -85.9761 247° West 432 497 24,000  Level Atlanta Center
Sun 09:53:32 PM 32.0803 -86.0931 247° West 432 497 24,000  Level Atlanta Center
Sun 09:54:32 PM 32.0297 -86.2364 247° West 432 497 24,000  Level Atlanta Center
Sun 09:55:32 PM 31.9836 -86.3675 248° West 432 497 24,000  Level Atlanta Center
Sun 09:56:32 PM 31.9392 -86.4983 248° West 432 497 24,000  Level Atlanta Center
Sun 09:57:32 PM 31.8928 -86.6292 247° West 432 497 24,000  Level Atlanta Center
Sun 09:58:32 PM 31.8461 -86.7600 247° West 432 497 24,000  Level Atlanta Center
Sun 09:59:32 PM 31.7994 -86.8881 247° West 437 503 24,000  Level Atlanta Center
Sun 10:00:32 PM 31.7503 -87.0208 246° West 432 497 24,000  Level Atlanta Center
Sun 10:02:56 PM 31.6486 -87.3044 247° West 425 489 24,000  Level Houston Center
Sun 10:03:57 PM 31.6028 -87.4297 247° West 420 483 24,000  Level Houston Center
Sun 10:04:59 PM 31.5475 -87.5814 247° West 423 487 24,000  Level Houston Center
Sun 10:06:00 PM 31.5022 -87.7072 247° West 423 487 24,000  Level Houston Center
Sun 10:07:01 PM 31.4558 -87.8319 246° West 420 483 24,000  Level Houston Center
Sun 10:08:02 PM 31.4044 -87.9533 244° Southwest 419 482 24,000  Level Houston Center
Sun 10:09:03 PM 31.3319 -88.0603 232° Southwest 422 486 24,000  Level Houston Center
Sun 10:10:04 PM 31.2628 -88.1664 233° Southwest 416 479 24,000  Level Houston Center
Sun 10:11:05 PM 31.1917 -88.2731 232° Southwest 422 486 24,000  Level Houston Center
Sun 10:12:07 PM 31.1078 -88.3978 232° Southwest 419 482 24,000  Level Houston Center
Sun 10:13:08 PM 31.0378 -88.5019 232° Southwest 415 478 24,000  Level Houston Center
Sun 10:14:09 PM 30.9675 -88.6067 232° Southwest 414 476 24,000  Level Houston Center
Sun 10:15:10 PM 30.8956 -88.7136 232° Southwest 421 484 24,000  Level Houston Center
Sun 10:16:11 PM 30.8275 -88.8219 234° Southwest 417 480 24,000  Level Houston Center
Sun 10:17:12 PM 30.7575 -88.9483 237° Southwest 420 483 24,000  Level Houston Center
Sun 10:18:13 PM 30.7014 -89.0678 241° Southwest 422 486 24,000  Level Houston Center
Sun 10:19:14 PM 30.6450 -89.1872 241° Southwest 422 486 24,000  Level Houston Center
Sun 10:20:15 PM 30.5881 -89.3039 240° Southwest 418 481 24,000 -49 Level Houston Center
Sun 10:21:17 PM 30.5339 -89.4219 242° Southwest 416 479 23,900  Descending Houston Center
Sun 10:22:18 PM 30.4767 -89.5403 241° Southwest 419 482 24,000 49 Climbing Houston Center
Sun 10:23:19 PM 30.4222 -89.6561 241° Southwest 412 474 24,000  Level Houston Center
Sun 10:24:20 PM 30.3658 -89.7700 240° Southwest 415 478 24,000  Level Houston Center
Sun 10:25:21 PM 30.2950 -89.8972 237° Southwest 417 480 24,000  Level Houston Center
Sun 10:26:22 PM 30.2331 -90.0089 237° Southwest 414 476 24,000  Level Houston Center
Sun 10:27:23 PM 30.1722 -90.1208 238° Southwest 413 475 24,000  Level Houston Center
Sun 10:28:24 PM 30.1103 -90.2339 238° Southwest 418 481 24,000  Level Houston Center
Sun 10:29:25 PM 30.0508 -90.3481 239° Southwest 416 479 24,000  Level Houston Center
Sun 10:30:26 PM 29.9894 -90.4603 238° Southwest 414 476 24,000  Level Houston Center
Sun 10:31:27 PM 29.9297 -90.5747 239° Southwest 418 481 24,000  Level Houston Center
Sun 10:32:28 PM 29.8703 -90.6872 239° Southwest 414 476 24,000  Level Houston Center
Sun 10:33:29 PM 29.7978 -90.8250 239° Southwest 418 481 24,000  Level Houston Center
Sun 10:34:30 PM 29.7397 -90.9381 239° Southwest 412 474 24,000  Level Houston Center
Sun 10:35:31 PM 29.6711 -91.0469 234° Southwest 419 482 24,000  Level Houston Center
Sun 10:36:32 PM 29.6022 -91.1528 233° Southwest 415 478 24,000  Level Houston Center
Sun 10:37:33 PM 29.5350 -91.2597 234° Southwest 414 476 24,000  Level Houston Center
Sun 10:38:34 PM 29.4922 -91.3817 248° West 413 475 24,000  Level Houston Center
Sun 10:39:35 PM 29.4667 -91.5117 257° West 416 479 24,000  Level Houston Center
Sun 10:40:36 PM 29.4503 -91.6442 262° West 419 482 24,000  Level Houston Center
Sun 10:41:37 PM 29.4394 -91.7867 265° West 425 489 24,000  Level Houston Center
Sun 10:42:38 PM 29.4261 -91.9217 264° West 427 491 24,000  Level Houston Center
Sun 10:43:39 PM 29.4131 -92.0550 264° West 423 487 24,000  Level Houston Center
Sun 10:44:40 PM 29.3936 -92.1861 260° West 417 480 24,000  Level Houston Center
Sun 10:45:41 PM 29.3764 -92.3172 261° West 416 479 24,000  Level Houston Center
Sun 10:46:42 PM 29.3669 -92.4500 265° West 417 480 24,000  Level Houston Center
Sun 10:47:43 PM 29.3550 -92.5833 264° West 419 482 24,000  Level Houston Center
Sun 10:48:43 PM 29.3483 -92.7178 267° West 422 486 24,000  Level Houston Center
Sun 10:49:44 PM 29.3478 -92.8528 270° West 424 488 24,000  Level Houston Center
Sun 10:50:45 PM 29.3536 -93.0172 272° West 429 494 24,000  Level Houston Center
Sun 10:51:46 PM 29.3736 -93.1536 280° West 433 498 24,000  Level Houston Center
Sun 10:52:47 PM 29.3925 -93.2908 279° West 434 499 24,000  Level Houston Center
Sun 10:53:48 PM 29.4117 -93.4283 279° West 436 502 24,000 -541 Level Houston Center
Sun 10:54:49 PM 29.4303 -93.5661 279° West 436 502 22,900 -1,279 Descending Houston Center
Sun 10:55:50 PM 29.4483 -93.7000 279° West 429 494 21,400 -1,525 Descending Houston Center
Sun 10:56:51 PM 29.4658 -93.8317 279° West 422 486 19,800 -1,475 Descending Houston Center
Sun 10:57:52 PM 29.4833 -93.9647 279° West 421 484 18,400 -1,482 Descending Houston Center
Sun 10:58:16 PM 29.4917 -94.0264 279° West 414 476 17,700 -1,574 Descending Houston Center
Sun 10:58:53 PM 29.5014 -94.0936 279° West 418 481 16,800 -1,909 Descending Houston Center
Sun 10:59:22 PM 29.5100 -94.1656 278° West 390 449 15,600 -2,066 Descending Houston Center
Sun 10:59:54 PM 29.5167 -94.2128 279° West 403 464 14,700 -1,967 Descending Houston Center
Sun 11:00:23 PM 29.5242 -94.2864 277° West 385 443 13,600 -1,672 Descending Houston Center
Sun 11:00:55 PM 29.5342 -94.3317 284° West 388 447 13,000 -1,279 Descending Houston Center
Sun 11:01:24 PM 29.5539 -94.3931 290° West 326 375 12,300 -1,082 Descending Houston Center
Sun 11:01:56 PM 29.5694 -94.4261 298° West 343 395 11,900 -1,164 Descending Houston Center
Sun 11:02:31 PM 29.5950 -94.4911 294° West 287 330 11,000 -1,180 Descending Houston Center
Sun 11:02:57 PM 29.6044 -94.5106 299° West 301 346 10,700 -1,418 Descending Houston Center
Sun 11:03:26 PM 29.6275 -94.5639 296° West 287 330 9,700 -1,574 Descending Houston Center
Sun 11:03:58 PM 29.6394 -94.5919 296° West 288 331 9,100 -1,574 Descending Houston Center
Sun 11:04:27 PM 29.6631 -94.6483 296° West 291 335 8,100 -1,869 Descending Houston Center
Sun 11:04:59 PM 29.6919 -94.6819 315° West 282 325 7,200 -1,574 Descending Houston Center
Sun 11:05:28 PM 29.7175 -94.7136 313° West 272 313 6,500 -1,475 Descending Houston Center
Sun 11:06:00 PM 29.7464 -94.7425 319° Northwest 276 318 5,700 -1,574 Descending Houston Center
Sun 11:06:29 PM 29.7717 -94.7742 313° West 278 320 4,900 -1,475 Descending Houston Center
Sun 11:07:01 PM 29.8017 -94.8047 319° Northwest 279 321 4,200 -900 Descending Houston Center
Sun 11:07:29 PM 29.8281 -94.8344 316° Northwest 279 321 4,000 -492 Descending Houston Center
Sun 11:08:02 PM 29.8561 -94.8669 315° West 280 322 3,700 -822 Descending Houston Center
Sun 11:08:42 PM 29.8783 -94.9222 295° West 254 292 3,000 -689 Descending Houston Center
Sun 11:09:03 PM 29.8892 -94.9417 303° West 266 306 3,000  Level Houston Center
Sun 11:09:37 PM 29.9097 -94.9883 297° West 260 299 3,000  Level Houston Center
Sun 11:10:04 PM 29.9222 -95.0147 299° West 262 302 3,000  Level Houston Center
Sun 11:10:44 PM 29.9494 -95.0750 298° West 264 304 3,000  Level Houston Center
Sun 11:11:05 PM 29.9561 -95.0889 299° West 263 303 3,000 -218 Level Houston Center
Sun 11:11:39 PM 29.9761 -95.1367 296° West 254 292 2,800 -353 Descending Houston Center

Login

Don't have an account? Register now (free) for customized features, flight alerts, and more!